Time;durP1;ratioP1;P1;durP2;ratioP2;P2;SDS_P1;SDS_P2;PMS_P1;PMS_P2;Temp;Humidity;BMP_temperature;BMP_pressure;BME280_temperature;BME280_humidity;BME280_pressure;Samples;Min_cycle;Max_cycle;Signal;HPM_P1;HPM_P2
2022/10/13 00:00:38;;;;;;;21.10;12.23;;;;;;;17.08;53.73;101966.34;5045766;28;20113;-68
2022/10/13 00:03:04;;;;;;;27.35;13.82;;;;;;;17.21;54.14;101964.16;5045281;28;20028;-69
2022/10/13 00:05:30;;;;;;;26.27;13.98;;;;;;;17.31;53.33;101958.09;5043657;28;20029;-68
2022/10/13 00:07:56;;;;;;;27.45;12.75;;;;;;;17.32;52.89;101960.56;5045953;28;20029;-67
2022/10/13 00:10:21;;;;;;;26.75;13.27;;;;;;;17.30;53.42;101960.00;5043597;28;20029;-69
2022/10/13 00:12:47;;;;;;;22.60;12.57;;;;;;;17.44;52.91;101950.47;5044880;28;20658;-69
2022/10/13 00:15:12;;;;;;;27.85;13.20;;;;;;;17.34;53.28;101949.44;5044707;28;20025;-69
2022/10/13 00:17:38;;;;;;;33.47;13.80;;;;;;;17.43;53.15;101950.72;5043400;28;20037;-69
2022/10/13 00:20:05;;;;;;;28.90;13.65;;;;;;;16.50;56.20;101947.44;5037731;28;20038;-69
2022/10/13 00:22:31;;;;;;;25.35;13.75;;;;;;;17.12;54.27;101943.88;5034631;28;20405;-69
2022/10/13 00:24:56;;;;;;;26.88;14.10;;;;;;;17.40;53.14;101943.03;5034786;28;20057;-68
2022/10/13 00:27:22;;;;;;;21.58;12.57;;;;;;;17.09;53.98;101935.38;5034918;28;20570;-69
2022/10/13 00:29:47;;;;;;;27.50;12.35;;;;;;;17.25;53.98;101938.16;5034660;28;20090;-69
2022/10/13 00:32:13;;;;;;;28.63;13.23;;;;;;;17.34;53.30;101933.97;5034873;28;20502;-68
2022/10/13 00:34:38;;;;;;;27.67;12.57;;;;;;;17.06;53.89;101942.13;5034791;28;20505;-69
2022/10/13 00:37:04;;;;;;;26.52;13.30;;;;;;;17.26;54.32;101938.97;5034640;28;20057;-68
2022/10/13 00:39:30;;;;;;;24.50;12.70;;;;;;;17.40;53.86;101934.91;5034312;28;20030;-69
2022/10/13 00:41:57;;;;;;;21.67;12.73;;;;;;;17.48;53.37;101929.06;5034402;28;20029;-68
2022/10/13 00:45:06;;;;;;;24.27;12.65;;;;;;;17.45;53.47;101933.09;5034668;28;20118;-69
2022/10/13 00:47:38;;;;;;;20.75;11.60;;;;;;;17.30;54.10;101934.69;5034598;28;20029;-68
2022/10/13 00:50:08;;;;;;;28.55;13.38;;;;;;;17.48;53.55;101923.63;5034274;28;20025;-70
2022/10/13 00:52:35;;;;;;;26.02;13.07;;;;;;;17.21;53.91;101928.84;5033969;28;20107;-69
2022/10/13 00:55:02;;;;;;;23.20;12.15;;;;;;;17.34;54.70;101928.56;5049035;28;20061;-68
2022/10/13 00:57:27;;;;;;;26.48;13.75;;;;;;;17.21;54.81;101922.59;5033487;28;20041;-68
2022/10/13 00:59:53;;;;;;;26.73;12.88;;;;;;;17.48;54.17;101916.34;5034044;28;20099;-69
2022/10/13 01:02:19;;;;;;;34.30;13.80;;;;;;;17.46;54.46;101918.44;5033793;28;20033;-68
2022/10/13 01:04:46;;;;;;;29.60;11.88;;;;;;;17.68;53.47;101915.88;5034484;28;20093;-69
2022/10/13 01:07:15;;;;;;;21.08;12.00;;;;;;;17.68;53.28;101915.03;5033972;28;20053;-69
2022/10/13 01:09:41;;;;;;;30.02;12.07;;;;;;;17.74;53.02;101919.50;5033886;28;20099;-69
2022/10/13 01:12:24;;;;;;;20.42;11.90;;;;;;;17.62;53.49;101908.69;5033883;28;20038;-68
2022/10/13 01:15:20;;;;;;;27.52;11.98;;;;;;;17.78;53.38;101907.91;5033679;28;20047;-69
2022/10/13 01:18:02;;;;;;;19.75;11.88;;;;;;;17.71;52.90;101901.78;5033562;28;20041;-69
2022/10/13 01:20:49;;;;;;;22.60;13.60;;;;;;;17.39;54.20;101909.59;5033624;28;20033;-70
2022/10/13 01:23:52;;;;;;;29.70;13.00;;;;;;;17.46;54.15;101904.88;5033585;28;20065;-68
2022/10/13 01:26:42;;;;;;;24.42;12.50;;;;;;;17.82;52.77;101900.91;5033559;28;20064;-69
2022/10/13 01:29:50;;;;;;;27.40;12.93;;;;;;;17.67;53.27;101900.63;5034291;28;20024;-69
2022/10/13 01:32:33;;;;;;;21.20;12.18;;;;;;;17.53;54.10;101891.97;5033252;28;20475;-68
2022/10/13 01:35:10;;;;;;;22.75;12.85;;;;;;;17.66;53.38;101898.16;5034111;28;20041;-69
2022/10/13 01:37:38;;;;;;;23.85;12.13;;;;;;;17.67;52.91;101889.75;5033204;28;20116;-69
2022/10/13 01:40:25;;;;;;;28.85;13.40;;;;;;;17.42;54.16;101892.00;5033046;28;20052;-70
2022/10/13 01:43:11;;;;;;;26.52;12.60;;;;;;;17.43;54.34;101899.09;5032957;28;20128;-69
2022/10/13 01:45:48;;;;;;;29.10;13.77;;;;;;;17.36;54.03;101885.66;5032705;28;20045;-68
2022/10/13 01:48:16;;;;;;;27.88;13.27;;;;;;;17.45;54.14;101892.31;5033120;28;20080;-69
2022/10/13 01:50:42;;;;;;;30.20;12.73;;;;;;;17.37;54.54;101900.91;5020723;28;20371;-65
2022/10/13 01:53:10;;;;;;;31.20;12.60;;;;;;;17.28;54.38;101906.94;5013441;28;20037;-65
2022/10/13 01:55:35;;;;;;;27.58;12.80;;;;;;;17.46;54.33;101899.44;5014821;28;20052;-65
2022/10/13 01:58:01;;;;;;;21.63;12.07;;;;;;;17.26;55.44;101900.94;5028169;28;20490;-65
2022/10/13 02:00:38;;;;;;;26.00;12.75;;;;;;;16.93;56.05;101900.84;5013107;28;20053;-66
2022/10/13 02:03:22;;;;;;;24.63;12.48;;;;;;;17.18;55.69;101894.00;5013138;28;20398;-66
2022/10/13 02:06:19;;;;;;;25.48;12.65;;;;;;;17.51;54.87;101885.16;5012186;28;20034;-65
2022/10/13 02:09:05;;;;;;;22.23;12.80;;;;;;;17.42;55.04;101887.41;5012671;28;20032;-65
2022/10/13 02:11:31;;;;;;;21.63;12.48;;;;;;;17.47;54.51;101878.53;5012949;28;20034;-65
2022/10/13 02:14:18;;;;;;;20.75;12.25;;;;;;;17.52;54.42;101881.34;5028555;28;20049;-65
2022/10/13 02:16:45;;;;;;;22.40;13.45;;;;;;;17.41;54.99;101872.16;5012923;28;20053;-64
2022/10/13 02:19:14;;;;;;;21.52;13.00;;;;;;;17.75;54.33;101877.66;5012938;28;20041;-65
2022/10/13 02:21:41;;;;;;;20.15;12.35;;;;;;;17.49;54.96;101873.69;5012599;28;20442;-65
2022/10/13 02:24:07;;;;;;;28.20;13.55;;;;;;;17.59;54.69;101868.44;5012507;28;20046;-66
2022/10/13 02:26:36;;;;;;;22.13;12.50;;;;;;;17.88;53.82;101870.00;5023150;28;20041;-64
2022/10/13 02:29:27;;;;;;;22.92;13.73;;;;;;;17.90;53.98;101870.56;5032766;28;20017;-65
2022/10/13 02:31:53;;;;;;;22.42;12.88;;;;;;;17.44;55.47;101868.13;5029417;28;20180;-67
2022/10/13 02:34:19;;;;;;;26.25;14.02;;;;;;;17.50;55.62;101870.72;5032549;28;20034;-66
2022/10/13 02:36:44;;;;;;;32.15;14.60;;;;;;;17.60;55.11;101870.06;5032247;28;20037;-65
2022/10/13 02:39:10;;;;;;;24.77;13.82;;;;;;;17.67;55.16;101865.28;5031967;28;20041;-64
2022/10/13 02:41:36;;;;;;;24.73;13.63;;;;;;;17.75;54.92;101873.03;5032246;28;20033;-65
2022/10/13 02:44:02;;;;;;;24.25;13.90;;;;;;;17.66;55.35;101863.66;5032673;28;20520;-65
2022/10/13 02:46:27;;;;;;;26.33;14.80;;;;;;;17.95;54.81;101858.91;5032156;28;20046;-65
2022/10/13 02:48:52;;;;;;;25.65;14.73;;;;;;;17.91;54.89;101863.22;5032095;28;20033;-65
2022/10/13 02:51:18;;;;;;;36.10;14.13;;;;;;;17.88;54.94;101853.69;5016563;28;20092;-64
2022/10/13 02:53:43;;;;;;;22.23;13.30;;;;;;;17.98;54.76;101862.00;5012048;28;20036;-64
2022/10/13 02:56:09;;;;;;;32.40;15.48;;;;;;;17.21;57.66;101854.66;5012349;28;20033;-64
2022/10/13 02:58:35;;;;;;;29.00;16.05;;;;;;;17.60;56.80;101863.81;5012015;28;20041;-65
2022/10/13 03:01:11;;;;;;;29.15;15.27;;;;;;;17.75;55.40;101851.28;5011959;28;20481;-66
2022/10/13 03:03:37;;;;;;;25.90;14.85;;;;;;;17.35;57.22;101842.44;5012036;28;20034;-65
2022/10/13 03:06:04;;;;;;;32.67;14.80;;;;;;;17.23;56.98;101842.50;5010315;28;20046;-65
2022/10/13 03:08:32;;;;;;;21.33;15.10;;;;;;;17.54;56.55;101841.16;5012102;28;20033;-65
2022/10/13 03:10:58;;;;;;;33.85;14.82;;;;;;;17.63;55.83;101836.94;5012072;28;20029;-66
2022/10/13 03:13:23;;;;;;;41.80;16.02;;;;;;;17.75;55.40;101829.53;5011851;28;20037;-66
2022/10/13 03:15:48;;;;;;;33.13;16.55;;;;;;;17.77;55.55;101813.00;5011678;28;20482;-65
2022/10/13 03:18:14;;;;;;;29.05;16.05;;;;;;;17.68;56.18;101822.63;5011718;28;20509;-65
2022/10/13 03:20:39;;;;;;;27.75;15.13;;;;;;;17.69;55.87;101825.06;5011752;28;20049;-64
2022/10/13 03:23:07;;;;;;;28.50;15.27;;;;;;;17.12;58.28;101834.41;5012366;28;20355;-64
2022/10/13 03:25:33;;;;;;;26.30;16.02;;;;;;;17.55;56.96;101826.50;5013475;28;20386;-64
2022/10/13 03:27:59;;;;;;;30.45;16.30;;;;;;;17.42;57.29;101818.63;5031681;28;20128;-65
2022/10/13 03:30:25;;;;;;;24.33;14.45;;;;;;;17.47;57.68;101811.38;5031438;28;20116;-65
2022/10/13 03:32:50;;;;;;;27.90;16.23;;;;;;;17.70;56.69;101812.31;5031276;28;20037;-65
2022/10/13 03:35:16;;;;;;;33.65;15.60;;;;;;;17.44;57.45;101825.47;5031466;28;20405;-65
2022/10/13 03:37:41;;;;;;;27.42;15.45;;;;;;;17.53;56.80;101815.84;5031856;28;20032;-64
2022/10/13 03:40:07;;;;;;;29.95;17.15;;;;;;;16.99;59.34;101796.69;5031209;28;20038;-64
2022/10/13 03:42:35;;;;;;;25.45;16.58;;;;;;;17.38;57.30;101790.28;5031218;28;20128;-64
2022/10/13 03:45:01;;;;;;;27.75;16.23;;;;;;;17.67;56.70;101789.16;5031254;28;20037;-65
2022/10/13 03:47:26;;;;;;;27.58;15.50;;;;;;;17.73;55.95;101784.66;5018393;28;20037;-64
2022/10/13 03:49:54;;;;;;;27.15;16.00;;;;;;;17.79;56.35;101787.16;5011860;28;20030;-64
2022/10/13 03:52:19;;;;;;;27.05;15.60;;;;;;;17.78;56.83;101790.97;5011592;28;20038;-64
2022/10/13 03:54:45;;;;;;;28.42;15.98;;;;;;;17.49;57.04;101805.75;5011512;28;20383;-64
2022/10/13 03:57:10;;;;;;;33.53;16.55;;;;;;;17.08;58.79;101803.38;5011210;28;20061;-64
2022/10/13 03:59:39;;;;;;;26.77;15.93;;;;;;;17.36;58.15;101806.03;5011435;28;20045;-64
2022/10/13 04:02:05;;;;;;;32.40;16.50;;;;;;;17.68;57.38;101807.13;5011959;28;20018;-65
2022/10/13 04:04:30;;;;;;;27.50;15.80;;;;;;;17.53;57.38;101802.28;5011285;28;20042;-65
2022/10/13 04:06:55;;;;;;;30.95;16.48;;;;;;;17.52;57.68;101797.09;5011673;28;20038;-65
2022/10/13 04:09:21;;;;;;;29.73;15.80;;;;;;;17.96;56.14;101798.88;5011342;28;20045;-65
2022/10/13 04:11:51;;;;;;;22.67;15.60;;;;;;;17.54;57.80;101795.78;5011315;28;20037;-65
2022/10/13 04:14:17;;;;;;;33.95;16.67;;;;;;;17.97;56.12;101796.94;5010073;28;20475;-66
2022/10/13 04:16:42;;;;;;;30.40;16.63;;;;;;;17.17;58.66;101816.31;5011669;28;20041;-65
2022/10/13 04:19:11;;;;;;;32.03;17.40;;;;;;;16.83;60.13;101806.44;5011091;28;20037;-64
2022/10/13 04:21:37;;;;;;;29.13;16.30;;;;;;;16.94;60.50;101797.44;5011193;28;20046;-65
2022/10/13 04:24:03;;;;;;;32.75;17.10;;;;;;;17.69;57.31;101794.38;5011109;28;20045;-65
2022/10/13 04:26:31;;;;;;;30.45;15.57;;;;;;;17.76;56.83;101798.56;5020744;28;20038;-64
2022/10/13 04:28:57;;;;;;;29.00;16.55;;;;;;;17.38;58.36;101799.28;5031971;28;20448;-66
2022/10/13 04:31:24;;;;;;;27.17;16.50;;;;;;;17.69;57.26;101802.53;5034068;28;20107;-65
2022/10/13 04:33:50;;;;;;;27.80;16.73;;;;;;;17.96;56.46;101808.91;5034235;28;20041;-65
2022/10/13 04:36:16;;;;;;;25.88;15.77;;;;;;;17.98;56.35;101794.00;5034299;28;20061;-64
2022/10/13 04:38:42;;;;;;;27.77;16.25;;;;;;;17.98;56.32;101777.69;5034424;28;20385;-64
2022/10/13 04:41:09;;;;;;;25.15;15.30;;;;;;;18.05;56.22;101774.75;5034267;28;20041;-65
2022/10/13 04:43:34;;;;;;;28.50;16.05;;;;;;;17.96;56.48;101766.22;5027427;28;20052;-65
2022/10/13 04:46:07;;;;;;;32.63;15.50;;;;;;;18.03;56.05;101779.63;5022596;28;20387;-65
2022/10/13 04:48:33;;;;;;;31.23;16.73;;;;;;;17.97;56.50;101786.91;5023856;28;20025;-65
2022/10/13 04:51:04;;;;;;;24.83;15.02;;;;;;;18.06;55.80;101785.38;5022213;28;20046;-64
2022/10/13 04:53:30;;;;;;;30.98;15.88;;;;;;;17.90;55.99;101785.44;5022098;28;20038;-64
2022/10/13 04:56:01;;;;;;;29.42;16.20;;;;;;;18.06;56.27;101779.94;5023961;28;20021;-65
2022/10/13 04:58:27;;;;;;;;;;;;;;;18.07;56.23;101762.56;5022480;28;20037;-65
2022/10/13 05:00:52;;;;;;;30.60;15.65;;;;;;;18.11;56.41;101771.84;5021248;28;20277;-64
2022/10/13 05:03:17;;;;;;;35.58;16.75;;;;;;;18.15;56.21;101770.28;5020722;28;20040;-63
2022/10/13 05:05:43;;;;;;;26.50;15.88;;;;;;;18.06;56.55;101771.78;5022573;28;20038;-64
2022/10/13 05:08:08;;;;;;;28.88;17.23;;;;;;;18.11;56.62;101784.63;5022072;28;20060;-64
2022/10/13 05:10:34;;;;;;;28.65;16.02;;;;;;;18.12;56.25;101784.38;5013615;28;20037;-65
2022/10/13 05:12:59;;;;;;;32.58;14.65;;;;;;;18.14;56.18;101779.50;5013746;28;20056;-64
2022/10/13 05:15:24;;;;;;;30.15;17.42;;;;;;;18.22;56.69;101781.78;5013724;28;20050;-65
2022/10/13 05:17:50;;;;;;;32.28;15.45;;;;;;;18.29;56.58;101790.59;5013728;28;20041;-66
2022/10/13 05:20:16;;;;;;;23.15;15.60;;;;;;;18.42;56.19;101779.34;5013676;28;20663;-65
2022/10/13 05:22:42;;;;;;;26.50;15.57;;;;;;;18.19;56.98;101768.69;5013575;28;20029;-65
2022/10/13 05:25:07;;;;;;;24.58;14.93;;;;;;;18.28;56.49;101767.16;5013395;28;20092;-63
2022/10/13 05:27:33;;;;;;;30.15;15.63;;;;;;;18.35;56.40;101770.53;5013140;28;20041;-64
2022/10/13 05:29:58;;;;;;;33.03;16.50;;;;;;;18.02;57.41;101757.06;5012962;28;20049;-66
2022/10/13 05:32:23;;;;;;;24.67;17.05;;;;;;;18.33;56.55;101758.25;5025186;28;20103;-65
2022/10/13 05:34:49;;;;;;;26.88;15.25;;;;;;;18.31;56.24;101747.63;5033745;28;20026;-66
2022/10/13 05:37:16;;;;;;;27.73;16.38;;;;;;;18.53;56.01;101744.09;5031412;28;20405;-65
2022/10/13 05:39:42;;;;;;;26.60;15.05;;;;;;;18.54;55.87;101743.00;5021917;28;20116;-64
2022/10/13 05:42:07;;;;;;;25.70;15.90;;;;;;;18.47;56.16;101745.94;5013413;28;20112;-64
2022/10/13 05:44:35;;;;;;;24.67;15.63;;;;;;;18.37;56.43;101759.41;5013568;28;20026;-64
2022/10/13 05:47:00;;;;;;;29.58;15.82;;;;;;;18.52;55.94;101764.22;5012146;28;20128;-64
2022/10/13 05:49:25;;;;;;;27.83;17.98;;;;;;;18.20;57.25;101766.81;5013361;28;20114;-64
2022/10/13 05:51:55;;;;;;;24.17;15.52;;;;;;;18.23;57.14;101758.13;5022255;28;20045;-65
2022/10/13 05:54:28;;;;;;;31.23;17.42;;;;;;;18.47;56.58;101761.44;5020274;28;20038;-66
2022/10/13 05:57:07;;;;;;;28.38;15.48;;;;;;;18.41;56.61;101755.09;5012561;28;20037;-65
2022/10/13 05:59:36;;;;;;;30.40;16.88;;;;;;;18.37;56.70;101757.50;5012996;28;20038;-65
2022/10/13 06:02:06;;;;;;;25.20;16.65;;;;;;;18.21;57.33;101747.50;5012945;28;20038;-65
2022/10/13 06:04:38;;;;;;;29.67;16.27;;;;;;;18.49;56.54;101745.69;5012878;28;20091;-64
2022/10/13 06:07:04;;;;;;;24.38;17.25;;;;;;;18.53;56.08;101739.47;5012675;28;20049;-64
2022/10/13 06:09:36;;;;;;;22.45;15.65;;;;;;;18.59;56.46;101760.22;5012540;28;20054;-65
2022/10/13 06:12:03;;;;;;;28.48;14.50;;;;;;;18.46;57.04;101754.34;5012425;28;20053;-65
2022/10/13 06:14:29;;;;;;;30.65;18.05;;;;;;;18.27;57.10;101753.81;5012555;28;20029;-64
2022/10/13 06:16:55;;;;;;;27.52;16.67;;;;;;;18.29;57.35;101757.94;5012582;28;20117;-65
2022/10/13 06:19:20;;;;;;;30.83;17.13;;;;;;;18.24;57.93;101760.59;5010680;28;20030;-64
2022/10/13 06:21:45;;;;;;;31.50;16.83;;;;;;;18.16;57.86;101754.78;5012284;28;20045;-66
2022/10/13 06:24:11;;;;;;;29.02;16.35;;;;;;;18.02;59.38;101758.94;5011625;28;20382;-65
2022/10/13 06:26:36;;;;;;;30.00;16.60;;;;;;;18.31;58.00;101763.13;5010961;28;20038;-64
2022/10/13 06:29:02;;;;;;;32.08;17.35;;;;;;;18.33;58.08;101753.66;5027866;28;20390;-66
2022/10/13 06:31:27;;;;;;;32.03;17.75;;;;;;;18.30;58.43;101756.84;5031177;28;20067;-65
2022/10/13 06:33:53;;;;;;;33.55;17.10;;;;;;;18.60;57.10;101741.97;5032344;28;20033;-65
2022/10/13 06:36:19;;;;;;;24.48;16.55;;;;;;;17.93;58.79;101739.50;5038841;28;20114;-64
2022/10/13 06:38:45;;;;;;;29.95;17.20;;;;;;;18.44;58.18;101737.47;5039589;28;20028;-65
2022/10/13 06:41:13;;;;;;;27.75;16.85;;;;;;;18.34;58.00;101749.00;5040177;28;20535;-65
2022/10/13 06:43:38;;;;;;;26.02;17.33;;;;;;;18.48;58.11;101742.13;5023743;28;20385;-65
2022/10/13 06:46:04;;;;;;;34.17;17.48;;;;;;;18.67;57.51;101748.84;5038805;28;20025;-65
2022/10/13 06:48:29;;;;;;;26.75;16.80;;;;;;;18.77;56.55;101742.72;5040478;28;20506;-64
2022/10/13 06:51:02;;;;;;;27.60;17.30;;;;;;;18.82;56.87;101740.84;5041539;28;20139;-66
2022/10/13 06:53:28;;;;;;;30.35;17.08;;;;;;;18.77;57.15;101738.06;5038393;28;20375;-64
2022/10/13 06:56:02;;;;;;;27.27;17.02;;;;;;;18.62;57.44;101746.09;5041102;28;20025;-65
2022/10/13 06:58:27;;;;;;;23.90;15.73;;;;;;;18.58;57.82;101736.78;5038170;28;20065;-65
2022/10/13 07:00:53;;;;;;;25.98;16.08;;;;;;;18.55;57.57;101741.94;5041201;28;20041;-65
2022/10/13 07:03:19;;;;;;;33.28;16.17;;;;;;;18.70;57.28;101736.63;5039680;28;20039;-64
2022/10/13 07:05:44;;;;;;;28.08;16.67;;;;;;;18.76;56.70;101738.34;5042272;28;20033;-65
2022/10/13 07:08:10;;;;;;;30.73;17.50;;;;;;;19.03;56.43;101734.50;5041495;28;20037;-64
2022/10/13 07:10:39;;;;;;;27.10;17.35;;;;;;;19.08;56.53;101720.94;5040289;28;20128;-64
2022/10/13 07:13:05;;;;;;;27.33;17.67;;;;;;;18.88;57.31;101706.31;5040234;28;20025;-64
2022/10/13 07:15:30;;;;;;;26.92;17.30;;;;;;;19.19;56.46;101705.47;5041396;28;20044;-65
2022/10/13 07:17:56;;;;;;;32.72;17.10;;;;;;;19.32;56.08;101701.50;5041557;28;20048;-65
2022/10/13 07:20:22;;;;;;;25.83;16.08;;;;;;;19.46;55.86;101702.72;5040221;28;20040;-66
2022/10/13 07:22:47;;;;;;;29.67;18.75;;;;;;;19.37;56.33;101712.47;5041953;28;20096;-64
2022/10/13 07:25:14;;;;;;;27.48;16.75;;;;;;;19.49;56.08;101721.25;5042122;28;20041;-64
2022/10/13 07:27:39;;;;;;;29.38;17.38;;;;;;;19.47;56.38;101717.97;5040740;28;20041;-65
2022/10/13 07:30:07;;;;;;;29.08;17.40;;;;;;;18.97;57.83;101721.09;5046805;28;20038;-65
2022/10/13 07:32:34;;;;;;;40.97;17.05;;;;;;;18.91;59.10;101733.84;5033091;28;20481;-64
2022/10/13 07:34:59;;;;;;;32.45;18.20;;;;;;;19.37;57.30;101734.25;5031589;28;20033;-65
2022/10/13 07:37:25;;;;;;;40.17;18.52;;;;;;;19.13;58.27;101737.31;5031071;28;20041;-65
2022/10/13 07:39:51;;;;;;;38.45;18.73;;;;;;;18.97;59.31;101746.44;5030846;28;20037;-65
2022/10/13 07:42:17;;;;;;;30.48;17.25;;;;;;;18.73;59.63;101756.00;5029882;28;20049;-66
2022/10/13 07:44:43;;;;;;;32.10;18.60;;;;;;;19.52;57.67;101737.13;5031187;28;20030;-65
2022/10/13 07:47:08;;;;;;;35.95;18.50;;;;;;;19.49;57.62;101749.34;5031775;28;20176;-66
2022/10/13 07:49:33;;;;;;;33.08;18.05;;;;;;;19.32;58.00;101747.84;5030919;28;20026;-66
2022/10/13 07:51:59;;;;;;;26.48;16.75;;;;;;;18.87;59.52;101742.81;5031477;28;20033;-65
2022/10/13 07:54:24;;;;;;;39.63;17.35;;;;;;;19.47;58.01;101751.53;5031152;28;20034;-65
2022/10/13 07:56:51;;;;;;;34.15;18.33;;;;;;;19.58;57.89;101741.50;5030764;28;20395;-66
2022/10/13 07:59:17;;;;;;;31.10;17.35;;;;;;;20.02;56.68;101740.13;5031020;28;20176;-65
2022/10/13 08:01:42;;;;;;;31.83;17.52;;;;;;;20.05;56.58;101739.56;5031526;28;20041;-65
2022/10/13 08:04:08;;;;;;;31.67;17.85;;;;;;;19.42;58.30;101740.56;5031888;28;20045;-65
2022/10/13 08:06:33;;;;;;;29.88;17.17;;;;;;;20.02;57.17;101740.94;5034697;28;20181;-65
2022/10/13 08:08:59;;;;;;;29.98;19.05;;;;;;;20.01;57.08;101733.84;5034552;28;20128;-65
2022/10/13 08:11:25;;;;;;;30.42;17.45;;;;;;;20.12;56.70;101749.19;5034784;28;20064;-65
2022/10/13 08:13:52;;;;;;;34.28;17.58;;;;;;;20.09;56.88;101746.97;5035198;28;20064;-65
2022/10/13 08:16:18;;;;;;;35.70;18.27;;;;;;;19.94;57.80;101738.72;5034759;28;20517;-65
2022/10/13 08:18:44;;;;;;;35.33;17.38;;;;;;;20.30;56.44;101730.72;5033167;28;20064;-66
2022/10/13 08:21:13;;;;;;;31.50;17.58;;;;;;;20.05;57.25;101728.66;5034490;28;20037;-65
2022/10/13 08:23:38;;;;;;;36.20;18.60;;;;;;;20.41;56.44;101724.19;5034471;28;20034;-65
2022/10/13 08:26:04;;;;;;;41.00;18.10;;;;;;;20.32;56.79;101726.63;5042918;28;20033;-66
2022/10/13 08:28:29;;;;;;;31.35;19.38;;;;;;;20.12;57.50;101727.34;5043637;28;20082;-65
2022/10/13 08:30:56;;;;;;;35.72;18.20;;;;;;;20.46;56.51;101724.22;5043150;28;20048;-66
2022/10/13 08:33:25;;;;;;;36.63;18.13;;;;;;;20.46;56.67;101730.47;5044888;28;20094;-66
2022/10/13 08:35:51;;;;;;;31.95;19.17;;;;;;;19.78;58.00;101728.00;5043147;28;20177;-66
2022/10/13 08:38:17;;;;;;;36.72;19.70;;;;;;;19.96;58.48;101736.56;5043236;28;20029;-66
2022/10/13 08:40:49;;;;;;;42.30;20.02;;;;;;;19.76;59.29;101743.78;5042837;28;20037;-65
2022/10/13 08:43:18;;;;;;;39.80;20.20;;;;;;;20.02;58.23;101745.59;5058512;28;20025;-66
2022/10/13 08:45:45;;;;;;;30.05;18.17;;;;;;;20.12;58.07;101732.81;5042004;28;20030;-66
2022/10/13 08:48:15;;;;;;;29.85;17.88;;;;;;;19.80;59.33;101731.28;5044186;28;20025;-65
2022/10/13 08:50:44;;;;;;;34.75;19.63;;;;;;;20.13;58.71;101726.25;5041835;28;20053;-66
2022/10/13 08:53:22;;;;;;;29.63;18.70;;;;;;;20.85;56.94;101723.44;5040543;28;20026;-65
2022/10/13 08:55:51;;;;;;;31.95;19.50;;;;;;;20.55;57.19;101728.06;5039730;28;20064;-66
2022/10/13 08:58:19;;;;;;;31.05;19.90;;;;;;;20.08;58.18;101730.88;5044818;28;20029;-65
2022/10/13 09:00:44;;;;;;;43.72;19.92;;;;;;;19.95;59.26;101732.16;5044354;28;20037;-66
2022/10/13 09:03:25;;;;;;;38.05;21.20;;;;;;;19.70;60.12;101733.94;5042024;28;20044;-67
2022/10/13 09:06:13;;;;;;;37.60;20.33;;;;;;;20.21;58.31;101730.41;5033587;28;20034;-65
2022/10/13 09:08:43;;;;;;;33.50;21.23;;;;;;;20.53;57.47;101724.78;5033583;28;20037;-66
2022/10/13 09:11:11;;;;;;;38.80;21.92;;;;;;;20.45;57.72;101728.03;5033922;28;20096;-67
2022/10/13 09:13:37;;;;;;;37.92;22.70;;;;;;;20.56;57.30;101727.78;5033481;28;20452;-65
2022/10/13 09:16:02;;;;;;;32.67;22.60;;;;;;;20.74;57.02;101723.72;5032822;28;20042;-66
2022/10/13 09:18:30;;;;;;;33.10;22.52;;;;;;;20.50;57.99;101719.88;5033333;28;20042;-64
2022/10/13 09:21:17;;;;;;;34.50;22.95;;;;;;;19.94;59.49;101725.09;5048610;28;20120;-65
2022/10/13 09:23:43;;;;;;;37.00;23.58;;;;;;;20.79;57.20;101724.56;5035545;28;20033;-66
2022/10/13 09:26:16;;;;;;;36.65;21.63;;;;;;;20.64;57.59;101721.78;5033709;28;20056;-67
2022/10/13 09:28:42;;;;;;;37.10;22.83;;;;;;;20.81;56.95;101725.09;5033422;28;20047;-66
2022/10/13 09:31:23;;;;;;;39.03;23.50;;;;;;;20.56;57.96;101718.78;5033102;28;20046;-67
2022/10/13 09:34:02;;;;;;;36.67;22.88;;;;;;;20.89;57.00;101713.63;5035939;28;20040;-65
2022/10/13 09:36:29;;;;;;;37.92;24.35;;;;;;;21.20;56.01;101719.97;5038390;28;20045;-65
2022/10/13 09:39:04;;;;;;;38.45;23.20;;;;;;;20.83;56.88;101717.44;5038605;28;20037;-65
2022/10/13 09:41:29;;;;;;;36.08;24.00;;;;;;;21.07;56.50;101714.22;5035877;28;20080;-65
2022/10/13 09:43:59;;;;;;;34.20;22.48;;;;;;;20.63;57.62;101717.44;5033822;28;20037;-65
2022/10/13 09:46:38;;;;;;;40.53;25.02;;;;;;;21.09;56.71;101721.03;5032924;28;20485;-67
2022/10/13 09:49:23;;;;;;;33.85;24.48;;;;;;;21.03;56.62;101713.94;5032979;28;20051;-66
2022/10/13 09:51:48;;;;;;;42.25;23.95;;;;;;;21.44;55.49;101703.81;5028049;28;20033;-67
2022/10/13 09:54:25;;;;;;;44.15;24.83;;;;;;;21.01;57.21;101710.69;5013281;28;20049;-66
2022/10/13 09:57:16;;;;;;;33.95;21.60;;;;;;;21.39;56.54;101706.53;5013007;28;20048;-66
2022/10/13 09:59:48;;;;;;;34.83;22.63;;;;;;;21.66;55.75;101718.78;5017985;28;20038;-66
2022/10/13 10:02:39;;;;;;;35.22;23.45;;;;;;;20.43;59.33;101713.81;5033446;28;20474;-66
2022/10/13 10:05:28;;;;;;;36.30;22.30;;;;;;;21.05;57.50;101714.47;5032846;28;20045;-65
2022/10/13 10:07:59;;;;;;;33.13;23.58;;;;;;;21.55;55.93;101717.19;5033037;28;20116;-67
2022/10/13 10:10:34;;;;;;;37.03;24.45;;;;;;;21.10;57.56;101708.19;5032544;28;20498;-66
2022/10/13 10:13:00;;;;;;;35.78;23.27;;;;;;;21.02;57.80;101712.31;5032427;28;20402;-67
2022/10/13 10:15:41;;;;;;;40.25;24.00;;;;;;;21.55;55.95;101713.63;5032356;28;20058;-65
2022/10/13 10:18:15;;;;;;;35.45;22.23;;;;;;;21.46;56.06;101712.56;5032370;28;20037;-66
2022/10/13 10:20:52;;;;;;;35.00;23.92;;;;;;;21.15;57.25;101709.00;5034299;28;20044;-67
2022/10/13 10:23:27;;;;;;;42.92;24.08;;;;;;;21.41;56.57;101712.53;5047694;28;20057;-65
2022/10/13 10:25:58;;;;;;;39.90;22.83;;;;;;;21.48;56.27;101713.09;5032542;28;20386;-67
2022/10/13 10:28:42;;;;;;;38.53;24.42;;;;;;;21.30;57.08;101710.94;5031603;28;20125;-66
2022/10/13 10:31:43;;;;;;;37.58;23.58;;;;;;;21.75;55.91;101702.63;5031967;28;20046;-65
2022/10/13 10:34:31;;;;;;;33.97;23.33;;;;;;;21.48;56.62;101704.88;5032065;28;20080;-65
2022/10/13 10:36:56;;;;;;;28.95;21.52;;;;;;;21.45;56.91;101705.41;5031909;28;20167;-64
2022/10/13 10:39:37;;;;;;;33.13;20.58;;;;;;;21.59;55.97;101701.84;5037018;28;20113;-65
2022/10/13 10:42:10;;;;;;;32.50;22.08;;;;;;;21.37;57.71;101700.50;5042430;28;20095;-67
2022/10/13 10:44:46;;;;;;;38.85;22.75;;;;;;;21.14;58.00;101695.63;5041452;28;20038;-66
2022/10/13 10:47:23;;;;;;;31.92;21.27;;;;;;;21.71;56.31;101694.16;5041694;28;20069;-66
2022/10/13 10:49:53;;;;;;;35.00;22.65;;;;;;;21.76;55.79;101690.56;5038932;28;20025;-65
2022/10/13 10:52:27;;;;;;;29.30;21.43;;;;;;;21.39;56.88;101693.69;5042248;28;20041;-64
2022/10/13 10:55:16;;;;;;;33.97;21.95;;;;;;;21.75;56.10;101697.97;5039318;28;20038;-65
2022/10/13 10:58:19;;;;;;;37.72;21.98;;;;;;;20.76;58.98;101695.03;5040461;28;20061;-66
2022/10/13 11:01:12;;;;;;;32.97;20.85;;;;;;;20.97;58.70;101693.94;4980731;28;20038;-65
2022/10/13 11:04:01;;;;;;;38.13;22.45;;;;;;;20.86;59.31;101686.03;4903483;29;20142;-66
2022/10/13 11:06:35;;;;;;;35.17;21.85;;;;;;;21.07;58.93;101689.63;4901957;29;20068;-66
2022/10/13 11:09:02;;;;;;;34.55;22.27;;;;;;;21.71;57.25;101680.47;4903253;29;20050;-67
2022/10/13 11:11:29;;;;;;;30.65;21.73;;;;;;;21.36;57.53;101683.31;4901564;29;20045;-67
2022/10/13 11:13:58;;;;;;;35.92;22.10;;;;;;;21.89;57.34;101684.56;4901031;29;20080;-67
2022/10/13 11:16:37;;;;;;;41.33;22.20;;;;;;;21.47;58.50;101675.88;4900724;29;20059;-68
2022/10/13 11:19:24;;;;;;;31.15;21.98;;;;;;;22.05;57.05;101677.09;4901646;29;20638;-66
2022/10/13 11:21:52;;;;;;;30.33;21.77;;;;;;;22.25;56.39;101680.53;4900901;29;20438;-66